sensor_id;sensor_type;location;lat;lon;timestamp;temperature;humidity
15819;DHT22;8010;53.986;12.106;2023-04-12T00:00:58;3.60;99.90
15819;DHT22;8010;53.986;12.106;2023-04-12T00:03:26;3.60;99.90
15819;DHT22;8010;53.986;12.106;2023-04-12T00:05:51;3.60;99.90
15819;DHT22;8010;53.986;12.106;2023-04-12T00:08:21;3.70;99.90
15819;DHT22;8010;53.986;12.106;2023-04-12T00:10:58;3.80;99.90
15819;DHT22;8010;53.986;12.106;2023-04-12T00:13:24;3.90;99.90
15819;DHT22;8010;53.986;12.106;2023-04-12T00:15:50;3.90;99.90
15819;DHT22;8010;53.986;12.106;2023-04-12T00:18:16;4.00;99.90
15819;DHT22;8010;53.986;12.106;2023-04-12T00:20:42;3.90;99.90
15819;DHT22;8010;53.986;12.106;2023-04-12T00:23:07;3.90;99.90
15819;DHT22;8010;53.986;12.106;2023-04-12T00:25:34;3.90;99.90
15819;DHT22;8010;53.986;12.106;2023-04-12T00:28:00;3.80;99.90
15819;DHT22;8010;53.986;12.106;2023-04-12T00:30:26;3.80;99.90
15819;DHT22;8010;53.986;12.106;2023-04-12T00:32:52;3.70;99.90
15819;DHT22;8010;53.986;12.106;2023-04-12T00:35:18;3.60;99.90
15819;DHT22;8010;53.986;12.106;2023-04-12T00:37:43;3.50;99.90
15819;DHT22;8010;53.986;12.106;2023-04-12T00:40:09;3.60;99.90
15819;DHT22;8010;53.986;12.106;2023-04-12T00:42:35;3.60;99.90
15819;DHT22;8010;53.986;12.106;2023-04-12T00:45:02;3.70;99.90
15819;DHT22;8010;53.986;12.106;2023-04-12T00:47:28;3.70;99.90
15819;DHT22;8010;53.986;12.106;2023-04-12T00:49:54;3.70;99.90
15819;DHT22;8010;53.986;12.106;2023-04-12T00:52:20;4.70;99.90
15819;DHT22;8010;53.986;12.106;2023-04-12T00:54:46;3.80;99.90
15819;DHT22;8010;53.986;12.106;2023-04-12T00:57:12;3.70;99.90
15819;DHT22;8010;53.986;12.106;2023-04-12T00:59:38;4.40;99.90
15819;DHT22;8010;53.986;12.106;2023-04-12T01:02:03;3.60;99.90
15819;DHT22;8010;53.986;12.106;2023-04-12T01:04:29;3.70;99.90
15819;DHT22;8010;53.986;12.106;2023-04-12T01:10:08;3.70;99.90
15819;DHT22;8010;53.986;12.106;2023-04-12T01:15:15;3.60;99.90
15819;DHT22;8010;53.986;12.106;2023-04-12T01:17:58;3.60;99.90
15819;DHT22;8010;53.986;12.106;2023-04-12T01:20:30;3.60;99.90
15819;DHT22;8010;53.986;12.106;2023-04-12T01:23:21;3.50;99.90
15819;DHT22;8010;53.986;12.106;2023-04-12T01:28:42;3.20;99.90
15819;DHT22;8010;53.986;12.106;2023-04-12T01:31:09;4.00;99.90
15819;DHT22;8010;53.986;12.106;2023-04-12T01:33:38;3.90;99.90
15819;DHT22;8010;53.986;12.106;2023-04-12T01:36:18;3.00;99.90
15819;DHT22;8010;53.986;12.106;2023-04-12T01:38:45;3.60;99.90
15819;DHT22;8010;53.986;12.106;2023-04-12T01:41:11;4.40;99.90
15819;DHT22;8010;53.986;12.106;2023-04-12T01:43:44;4.70;99.90
15819;DHT22;8010;53.986;12.106;2023-04-12T01:46:12;3.00;99.90
15819;DHT22;8010;53.986;12.106;2023-04-12T01:48:39;3.30;99.90
15819;DHT22;8010;53.986;12.106;2023-04-12T01:51:15;3.00;99.90
15819;DHT22;8010;53.986;12.106;2023-04-12T01:53:49;4.00;99.90
15819;DHT22;8010;53.986;12.106;2023-04-12T01:56:19;5.00;99.90
15819;DHT22;8010;53.986;12.106;2023-04-12T01:58:47;3.40;99.90
15819;DHT22;8010;53.986;12.106;2023-04-12T02:01:16;3.20;99.90
15819;DHT22;8010;53.986;12.106;2023-04-12T02:03:43;4.80;99.90
15819;DHT22;8010;53.986;12.106;2023-04-12T02:06:11;3.20;99.90
15819;DHT22;8010;53.986;12.106;2023-04-12T02:08:36;4.50;99.90
15819;DHT22;8010;53.986;12.106;2023-04-12T02:11:09;3.10;99.90
15819;DHT22;8010;53.986;12.106;2023-04-12T02:13:35;3.00;99.90
15819;DHT22;8010;53.986;12.106;2023-04-12T02:16:00;3.00;99.90
15819;DHT22;8010;53.986;12.106;2023-04-12T02:18:27;2.90;99.90
15819;DHT22;8010;53.986;12.106;2023-04-12T02:20:53;4.30;99.90
15819;DHT22;8010;53.986;12.106;2023-04-12T02:23:18;3.40;99.90
15819;DHT22;8010;53.986;12.106;2023-04-12T02:25:45;2.80;99.90
15819;DHT22;8010;53.986;12.106;2023-04-12T02:28:11;2.80;99.90
15819;DHT22;8010;53.986;12.106;2023-04-12T02:30:37;2.70;99.90
15819;DHT22;8010;53.986;12.106;2023-04-12T02:33:03;4.00;99.90
15819;DHT22;8010;53.986;12.106;2023-04-12T02:35:30;2.70;99.90
15819;DHT22;8010;53.986;12.106;2023-04-12T02:37:56;3.50;99.90
15819;DHT22;8010;53.986;12.106;2023-04-12T02:40:22;4.00;99.90
15819;DHT22;8010;53.986;12.106;2023-04-12T02:42:48;2.60;99.90
15819;DHT22;8010;53.986;12.106;2023-04-12T02:45:13;2.50;99.90
15819;DHT22;8010;53.986;12.106;2023-04-12T02:47:39;2.40;99.90
15819;DHT22;8010;53.986;12.106;2023-04-12T02:50:06;2.40;99.90
15819;DHT22;8010;53.986;12.106;2023-04-12T02:52:32;2.30;99.90
15819;DHT22;8010;53.986;12.106;2023-04-12T02:54:58;3.80;99.90
15819;DHT22;8010;53.986;12.106;2023-04-12T02:57:23;3.80;99.90
15819;DHT22;8010;53.986;12.106;2023-04-12T02:59:53;2.10;99.90
15819;DHT22;8010;53.986;12.106;2023-04-12T03:02:19;2.10;99.90
15819;DHT22;8010;53.986;12.106;2023-04-12T03:04:45;2.00;99.90
15819;DHT22;8010;53.986;12.106;2023-04-12T03:07:12;1.90;99.90
15819;DHT22;8010;53.986;12.106;2023-04-12T03:09:38;1.80;99.90
15819;DHT22;8010;53.986;12.106;2023-04-12T03:12:07;1.80;99.90
15819;DHT22;8010;53.986;12.106;2023-04-12T03:14:32;2.80;99.90
15819;DHT22;8010;53.986;12.106;2023-04-12T03:16:58;2.50;99.90
15819;DHT22;8010;53.986;12.106;2023-04-12T03:19:23;2.80;99.90
15819;DHT22;8010;53.986;12.106;2023-04-12T03:21:49;3.60;99.90
15819;DHT22;8010;53.986;12.106;2023-04-12T03:24:14;1.90;99.90
15819;DHT22;8010;53.986;12.106;2023-04-12T03:26:40;3.40;99.90
15819;DHT22;8010;53.986;12.106;2023-04-12T03:29:06;2.40;99.90
15819;DHT22;8010;53.986;12.106;2023-04-12T03:31:35;1.90;99.90
15819;DHT22;8010;53.986;12.106;2023-04-12T03:34:01;2.50;99.90
15819;DHT22;8010;53.986;12.106;2023-04-12T03:36:27;2.00;99.90
15819;DHT22;8010;53.986;12.106;2023-04-12T03:38:54;2.20;99.90
15819;DHT22;8010;53.986;12.106;2023-04-12T03:41:22;2.00;99.90
15819;DHT22;8010;53.986;12.106;2023-04-12T03:43:48;2.60;99.90
15819;DHT22;8010;53.986;12.106;2023-04-12T03:46:14;3.80;99.90
15819;DHT22;8010;53.986;12.106;2023-04-12T03:48:40;3.60;99.90
15819;DHT22;8010;53.986;12.106;2023-04-12T03:51:06;2.90;99.90
15819;DHT22;8010;53.986;12.106;2023-04-12T03:53:37;2.00;99.90
15819;DHT22;8010;53.986;12.106;2023-04-12T03:56:03;2.00;99.90
15819;DHT22;8010;53.986;12.106;2023-04-12T03:58:28;2.10;99.90
15819;DHT22;8010;53.986;12.106;2023-04-12T04:00:54;2.10;99.90
15819;DHT22;8010;53.986;12.106;2023-04-12T04:03:20;3.60;99.90
15819;DHT22;8010;53.986;12.106;2023-04-12T04:05:51;3.70;99.90
15819;DHT22;8010;53.986;12.106;2023-04-12T04:08:16;2.60;99.90
15819;DHT22;8010;53.986;12.106;2023-04-12T04:10:42;3.80;99.90
15819;DHT22;8010;53.986;12.106;2023-04-12T04:13:07;2.70;99.90
15819;DHT22;8010;53.986;12.106;2023-04-12T04:15:33;2.20;99.90
15819;DHT22;8010;53.986;12.106;2023-04-12T04:17:58;2.20;99.90
15819;DHT22;8010;53.986;12.106;2023-04-12T04:20:24;3.50;99.90
15819;DHT22;8010;53.986;12.106;2023-04-12T04:22:50;2.20;99.90
15819;DHT22;8010;53.986;12.106;2023-04-12T04:25:17;2.10;99.90
15819;DHT22;8010;53.986;12.106;2023-04-12T04:27:44;2.10;99.90
15819;DHT22;8010;53.986;12.106;2023-04-12T04:30:10;2.10;99.90
15819;DHT22;8010;53.986;12.106;2023-04-12T04:32:37;2.10;99.90
15819;DHT22;8010;53.986;12.106;2023-04-12T04:35:03;2.30;99.90
15819;DHT22;8010;53.986;12.106;2023-04-12T04:37:30;2.00;99.90
15819;DHT22;8010;53.986;12.106;2023-04-12T04:39:56;3.20;99.90
15819;DHT22;8010;53.986;12.106;2023-04-12T04:42:22;2.30;99.90
15819;DHT22;8010;53.986;12.106;2023-04-12T04:44:48;2.10;99.90
15819;DHT22;8010;53.986;12.106;2023-04-12T04:47:24;2.00;99.90
15819;DHT22;8010;53.986;12.106;2023-04-12T04:49:50;2.00;99.90
15819;DHT22;8010;53.986;12.106;2023-04-12T04:52:15;2.00;99.90
15819;DHT22;8010;53.986;12.106;2023-04-12T04:54:42;2.10;99.90
15819;DHT22;8010;53.986;12.106;2023-04-12T04:57:08;2.10;99.90
15819;DHT22;8010;53.986;12.106;2023-04-12T04:59:36;2.10;99.90
15819;DHT22;8010;53.986;12.106;2023-04-12T05:02:02;2.20;99.90
15819;DHT22;8010;53.986;12.106;2023-04-12T05:04:27;2.20;99.90
15819;DHT22;8010;53.986;12.106;2023-04-12T05:06:53;2.30;99.90
15819;DHT22;8010;53.986;12.106;2023-04-12T05:09:19;2.30;99.90
15819;DHT22;8010;53.986;12.106;2023-04-12T05:11:45;2.40;99.90
15819;DHT22;8010;53.986;12.106;2023-04-12T05:14:10;2.40;99.90
15819;DHT22;8010;53.986;12.106;2023-04-12T05:16:36;2.40;99.90
15819;DHT22;8010;53.986;12.106;2023-04-12T05:19:02;2.50;99.90
15819;DHT22;8010;53.986;12.106;2023-04-12T05:21:28;2.50;99.90
15819;DHT22;8010;53.986;12.106;2023-04-12T05:23:53;2.60;99.90
15819;DHT22;8010;53.986;12.106;2023-04-12T05:26:19;2.60;99.90
15819;DHT22;8010;53.986;12.106;2023-04-12T05:28:45;2.70;99.90
15819;DHT22;8010;53.986;12.106;2023-04-12T05:31:11;2.70;99.90
15819;DHT22;8010;53.986;12.106;2023-04-12T05:33:37;2.80;99.90
15819;DHT22;8010;53.986;12.106;2023-04-12T05:36:03;2.90;99.90
15819;DHT22;8010;53.986;12.106;2023-04-12T05:38:28;3.00;99.90
15819;DHT22;8010;53.986;12.106;2023-04-12T05:40:54;3.00;99.90
15819;DHT22;8010;53.986;12.106;2023-04-12T05:43:20;3.10;99.90
15819;DHT22;8010;53.986;12.106;2023-04-12T05:45:45;3.30;99.90
15819;DHT22;8010;53.986;12.106;2023-04-12T05:48:11;3.30;99.90
15819;DHT22;8010;53.986;12.106;2023-04-12T05:50:36;3.50;99.90
15819;DHT22;8010;53.986;12.106;2023-04-12T05:53:02;3.60;99.90
15819;DHT22;8010;53.986;12.106;2023-04-12T05:55:28;3.70;99.90
15819;DHT22;8010;53.986;12.106;2023-04-12T05:57:54;3.90;99.90
15819;DHT22;8010;53.986;12.106;2023-04-12T06:00:19;4.00;99.90
15819;DHT22;8010;53.986;12.106;2023-04-12T06:02:46;4.10;99.90
15819;DHT22;8010;53.986;12.106;2023-04-12T06:05:13;4.20;99.90
15819;DHT22;8010;53.986;12.106;2023-04-12T06:07:39;4.40;99.90
15819;DHT22;8010;53.986;12.106;2023-04-12T06:10:07;4.50;99.90
15819;DHT22;8010;53.986;12.106;2023-04-12T06:12:33;4.60;99.90
15819;DHT22;8010;53.986;12.106;2023-04-12T06:14:58;4.70;99.90
15819;DHT22;8010;53.986;12.106;2023-04-12T06:17:24;4.80;99.90
15819;DHT22;8010;53.986;12.106;2023-04-12T06:19:50;4.90;99.90
15819;DHT22;8010;53.986;12.106;2023-04-12T06:22:15;5.00;99.90
15819;DHT22;8010;53.986;12.106;2023-04-12T06:24:41;5.10;99.90
15819;DHT22;8010;53.986;12.106;2023-04-12T06:27:06;5.20;99.90
15819;DHT22;8010;53.986;12.106;2023-04-12T06:29:32;5.40;99.90
15819;DHT22;8010;53.986;12.106;2023-04-12T06:31:57;5.50;99.90
15819;DHT22;8010;53.986;12.106;2023-04-12T06:34:23;5.60;99.90
15819;DHT22;8010;53.986;12.106;2023-04-12T06:36:48;5.80;99.90
15819;DHT22;8010;53.986;12.106;2023-04-12T06:39:14;5.90;99.90
15819;DHT22;8010;53.986;12.106;2023-04-12T06:41:41;6.00;99.90
15819;DHT22;8010;53.986;12.106;2023-04-12T06:44:11;6.20;99.90
15819;DHT22;8010;53.986;12.106;2023-04-12T06:46:37;6.30;99.90
15819;DHT22;8010;53.986;12.106;2023-04-12T06:49:03;6.40;99.90
15819;DHT22;8010;53.986;12.106;2023-04-12T06:51:28;6.50;99.90
15819;DHT22;8010;53.986;12.106;2023-04-12T06:53:54;6.50;99.90
15819;DHT22;8010;53.986;12.106;2023-04-12T06:56:22;6.60;99.90
15819;DHT22;8010;53.986;12.106;2023-04-12T06:58:47;6.70;99.90
15819;DHT22;8010;53.986;12.106;2023-04-12T07:01:13;6.90;99.90
15819;DHT22;8010;53.986;12.106;2023-04-12T07:03:39;7.00;99.90
15819;DHT22;8010;53.986;12.106;2023-04-12T07:06:04;7.20;99.90
15819;DHT22;8010;53.986;12.106;2023-04-12T07:08:32;7.40;99.90
15819;DHT22;8010;53.986;12.106;2023-04-12T07:10:57;7.50;99.90
15819;DHT22;8010;53.986;12.106;2023-04-12T07:13:23;7.50;99.90
15819;DHT22;8010;53.986;12.106;2023-04-12T07:15:49;7.70;99.90
15819;DHT22;8010;53.986;12.106;2023-04-12T07:18:15;7.80;99.90
15819;DHT22;8010;53.986;12.106;2023-04-12T07:20:41;8.00;99.90
15819;DHT22;8010;53.986;12.106;2023-04-12T07:23:06;8.10;99.90
15819;DHT22;8010;53.986;12.106;2023-04-12T07:25:32;8.40;99.90
15819;DHT22;8010;53.986;12.106;2023-04-12T07:27:57;8.50;99.90
15819;DHT22;8010;53.986;12.106;2023-04-12T07:30:23;8.60;99.90
15819;DHT22;8010;53.986;12.106;2023-04-12T07:32:49;8.60;99.90
15819;DHT22;8010;53.986;12.106;2023-04-12T07:35:15;8.70;99.90
15819;DHT22;8010;53.986;12.106;2023-04-12T07:37:41;8.90;99.90
15819;DHT22;8010;53.986;12.106;2023-04-12T07:40:07;8.90;99.90
15819;DHT22;8010;53.986;12.106;2023-04-12T07:42:32;9.00;99.90
15819;DHT22;8010;53.986;12.106;2023-04-12T07:44:58;9.00;99.90
15819;DHT22;8010;53.986;12.106;2023-04-12T07:47:23;9.10;99.90
15819;DHT22;8010;53.986;12.106;2023-04-12T07:49:49;9.20;99.90
15819;DHT22;8010;53.986;12.106;2023-04-12T07:52:15;9.20;99.90
15819;DHT22;8010;53.986;12.106;2023-04-12T07:54:41;9.30;99.90
15819;DHT22;8010;53.986;12.106;2023-04-12T07:57:07;9.40;99.90
15819;DHT22;8010;53.986;12.106;2023-04-12T07:59:34;9.50;99.90
15819;DHT22;8010;53.986;12.106;2023-04-12T08:01:59;9.50;99.90
15819;DHT22;8010;53.986;12.106;2023-04-12T08:04:26;9.70;99.90
15819;DHT22;8010;53.986;12.106;2023-04-12T08:06:53;9.90;99.90
15819;DHT22;8010;53.986;12.106;2023-04-12T08:09:19;10.10;99.90
15819;DHT22;8010;53.986;12.106;2023-04-12T08:11:44;10.30;99.90
15819;DHT22;8010;53.986;12.106;2023-04-12T08:14:11;10.50;99.90
15819;DHT22;8010;53.986;12.106;2023-04-12T08:16:37;10.50;99.90
15819;DHT22;8010;53.986;12.106;2023-04-12T08:19:03;10.40;99.90
15819;DHT22;8010;53.986;12.106;2023-04-12T08:21:28;10.50;99.90
15819;DHT22;8010;53.986;12.106;2023-04-12T08:23:54;10.70;99.90
15819;DHT22;8010;53.986;12.106;2023-04-12T08:26:20;10.70;99.90
15819;DHT22;8010;53.986;12.106;2023-04-12T08:28:45;10.80;99.90
15819;DHT22;8010;53.986;12.106;2023-04-12T08:31:13;10.90;99.90
15819;DHT22;8010;53.986;12.106;2023-04-12T08:33:38;12.30;99.90
15819;DHT22;8010;53.986;12.106;2023-04-12T08:36:04;13.40;99.90
15819;DHT22;8010;53.986;12.106;2023-04-12T08:38:30;11.00;99.90
15819;DHT22;8010;53.986;12.106;2023-04-12T08:40:56;11.10;99.90
15819;DHT22;8010;53.986;12.106;2023-04-12T08:43:27;11.20;99.90
15819;DHT22;8010;53.986;12.106;2023-04-12T08:45:53;11.30;99.90
15819;DHT22;8010;53.986;12.106;2023-04-12T08:48:19;11.50;99.90
15819;DHT22;8010;53.986;12.106;2023-04-12T08:50:47;11.70;99.90
15819;DHT22;8010;53.986;12.106;2023-04-12T08:53:13;11.80;99.90
15819;DHT22;8010;53.986;12.106;2023-04-12T08:55:43;11.90;99.90
15819;DHT22;8010;53.986;12.106;2023-04-12T08:58:08;12.10;99.90
15819;DHT22;8010;53.986;12.106;2023-04-12T09:00:36;12.20;99.90
15819;DHT22;8010;53.986;12.106;2023-04-12T09:03:02;12.30;99.90
15819;DHT22;8010;53.986;12.106;2023-04-12T09:05:29;13.90;99.90
15819;DHT22;8010;53.986;12.106;2023-04-12T09:07:56;12.30;99.90
15819;DHT22;8010;53.986;12.106;2023-04-12T09:10:39;12.40;99.90
15819;DHT22;8010;53.986;12.106;2023-04-12T09:13:07;12.60;99.90
15819;DHT22;8010;53.986;12.106;2023-04-12T09:15:33;12.70;99.90
15819;DHT22;8010;53.986;12.106;2023-04-12T09:18:05;12.70;99.90
15819;DHT22;8010;53.986;12.106;2023-04-12T09:20:31;12.70;99.90
15819;DHT22;8010;53.986;12.106;2023-04-12T09:22:57;12.90;99.90
15819;DHT22;8010;53.986;12.106;2023-04-12T09:25:37;12.80;99.90
15819;DHT22;8010;53.986;12.106;2023-04-12T09:28:16;13.10;99.90
15819;DHT22;8010;53.986;12.106;2023-04-12T09:30:42;13.20;99.90
15819;DHT22;8010;53.986;12.106;2023-04-12T09:33:11;13.30;99.90
15819;DHT22;8010;53.986;12.106;2023-04-12T09:35:37;13.40;99.90
15819;DHT22;8010;53.986;12.106;2023-04-12T09:38:07;13.40;99.90
15819;DHT22;8010;53.986;12.106;2023-04-12T09:40:33;13.40;99.90
15819;DHT22;8010;53.986;12.106;2023-04-12T09:43:01;13.40;99.90
15819;DHT22;8010;53.986;12.106;2023-04-12T09:45:28;13.40;99.90
15819;DHT22;8010;53.986;12.106;2023-04-12T09:47:55;13.40;99.90
15819;DHT22;8010;53.986;12.106;2023-04-12T09:50:23;13.50;99.90
15819;DHT22;8010;53.986;12.106;2023-04-12T09:52:49;13.60;99.90
15819;DHT22;8010;53.986;12.106;2023-04-12T09:55:15;13.70;99.90
15819;DHT22;8010;53.986;12.106;2023-04-12T09:57:43;13.80;99.90
15819;DHT22;8010;53.986;12.106;2023-04-12T10:00:10;14.10;99.90
15819;DHT22;8010;53.986;12.106;2023-04-12T10:02:40;14.00;99.90
15819;DHT22;8010;53.986;12.106;2023-04-12T10:05:06;14.00;99.90
15819;DHT22;8010;53.986;12.106;2023-04-12T10:07:35;14.20;99.90
15819;DHT22;8010;53.986;12.106;2023-04-12T10:10:02;14.50;99.90
15819;DHT22;8010;53.986;12.106;2023-04-12T10:12:28;14.60;99.90
15819;DHT22;8010;53.986;12.106;2023-04-12T10:14:54;14.70;99.90
15819;DHT22;8010;53.986;12.106;2023-04-12T10:17:21;17.20;99.90
15819;DHT22;8010;53.986;12.106;2023-04-12T10:19:50;15.20;99.90
15819;DHT22;8010;53.986;12.106;2023-04-12T10:22:16;15.50;99.90
15819;DHT22;8010;53.986;12.106;2023-04-12T10:24:42;15.50;99.90
15819;DHT22;8010;53.986;12.106;2023-04-12T10:27:08;15.50;99.90
15819;DHT22;8010;53.986;12.106;2023-04-12T10:29:34;15.40;99.90
15819;DHT22;8010;53.986;12.106;2023-04-12T10:32:20;15.40;99.90
15819;DHT22;8010;53.986;12.106;2023-04-12T10:34:51;15.50;99.90
15819;DHT22;8010;53.986;12.106;2023-04-12T10:37:17;15.40;99.90
15819;DHT22;8010;53.986;12.106;2023-04-12T10:39:44;15.40;99.90
15819;DHT22;8010;53.986;12.106;2023-04-12T10:42:26;15.70;99.90
15819;DHT22;8010;53.986;12.106;2023-04-12T10:44:54;15.80;99.90
15819;DHT22;8010;53.986;12.106;2023-04-12T10:50:31;15.40;99.90
15819;DHT22;8010;53.986;12.106;2023-04-12T10:53:21;15.20;99.90
15819;DHT22;8010;53.986;12.106;2023-04-12T10:55:49;15.20;99.90
15819;DHT22;8010;53.986;12.106;2023-04-12T11:01:12;15.00;99.90
15819;DHT22;8010;53.986;12.106;2023-04-12T11:04:08;15.00;99.90
15819;DHT22;8010;53.986;12.106;2023-04-12T11:09:22;14.90;99.90
15819;DHT22;8010;53.986;12.106;2023-04-12T11:11:49;14.90;99.90
15819;DHT22;8010;53.986;12.106;2023-04-12T11:14:15;14.90;99.90
15819;DHT22;8010;53.986;12.106;2023-04-12T11:19:38;14.80;99.90
15819;DHT22;8010;53.986;12.106;2023-04-12T11:22:06;14.80;99.90
15819;DHT22;8010;53.986;12.106;2023-04-12T11:24:32;14.80;99.90
15819;DHT22;8010;53.986;12.106;2023-04-12T11:26:58;14.70;99.90
15819;DHT22;8010;53.986;12.106;2023-04-12T11:29:25;14.70;99.90
15819;DHT22;8010;53.986;12.106;2023-04-12T11:31:51;14.80;99.90
15819;DHT22;8010;53.986;12.106;2023-04-12T11:34:17;15.00;99.90
15819;DHT22;8010;53.986;12.106;2023-04-12T11:36:48;15.10;99.90
15819;DHT22;8010;53.986;12.106;2023-04-12T11:39:16;15.30;99.90
15819;DHT22;8010;53.986;12.106;2023-04-12T11:41:46;16.60;99.90
15819;DHT22;8010;53.986;12.106;2023-04-12T11:44:12;15.00;99.90
15819;DHT22;8010;53.986;12.106;2023-04-12T11:46:39;15.10;99.90
15819;DHT22;8010;53.986;12.106;2023-04-12T11:49:04;15.40;99.90
15819;DHT22;8010;53.986;12.106;2023-04-12T11:51:31;15.70;99.90
15819;DHT22;8010;53.986;12.106;2023-04-12T11:53:57;16.10;99.90
15819;DHT22;8010;53.986;12.106;2023-04-12T11:56:24;16.20;99.90
15819;DHT22;8010;53.986;12.106;2023-04-12T11:58:50;15.90;99.90
15819;DHT22;8010;53.986;12.106;2023-04-12T12:01:17;15.90;99.90
15819;DHT22;8010;53.986;12.106;2023-04-12T12:03:43;15.90;99.90
15819;DHT22;8010;53.986;12.106;2023-04-12T12:06:09;16.40;99.90
15819;DHT22;8010;53.986;12.106;2023-04-12T12:08:35;15.50;99.90
15819;DHT22;8010;53.986;12.106;2023-04-12T12:11:01;15.10;99.90
15819;DHT22;8010;53.986;12.106;2023-04-12T12:13:45;15.70;99.90
15819;DHT22;8010;53.986;12.106;2023-04-12T12:16:11;15.00;99.90
15819;DHT22;8010;53.986;12.106;2023-04-12T12:18:45;15.00;99.90
15819;DHT22;8010;53.986;12.106;2023-04-12T12:21:12;14.80;99.90
15819;DHT22;8010;53.986;12.106;2023-04-12T12:23:38;14.60;99.90
15819;DHT22;8010;53.986;12.106;2023-04-12T12:26:06;14.60;99.90
15819;DHT22;8010;53.986;12.106;2023-04-12T12:28:39;14.50;99.90
15819;DHT22;8010;53.986;12.106;2023-04-12T12:31:06;14.40;99.90
15819;DHT22;8010;53.986;12.106;2023-04-12T12:33:41;15.00;99.90
15819;DHT22;8010;53.986;12.106;2023-04-12T12:36:07;14.30;99.90
15819;DHT22;8010;53.986;12.106;2023-04-12T12:38:40;14.30;99.90
15819;DHT22;8010;53.986;12.106;2023-04-12T12:41:17;14.40;99.90
15819;DHT22;8010;53.986;12.106;2023-04-12T12:43:44;14.30;99.90
15819;DHT22;8010;53.986;12.106;2023-04-12T12:46:10;14.20;99.90
15819;DHT22;8010;53.986;12.106;2023-04-12T12:48:42;14.10;99.90
15819;DHT22;8010;53.986;12.106;2023-04-12T12:51:08;14.00;99.90
15819;DHT22;8010;53.986;12.106;2023-04-12T12:53:38;13.90;99.90
15819;DHT22;8010;53.986;12.106;2023-04-12T12:56:04;13.80;99.90
15819;DHT22;8010;53.986;12.106;2023-04-12T12:58:30;13.70;99.90
15819;DHT22;8010;53.986;12.106;2023-04-12T13:00:56;13.70;99.90
15819;DHT22;8010;53.986;12.106;2023-04-12T13:03:21;13.70;99.90
15819;DHT22;8010;53.986;12.106;2023-04-12T13:05:47;13.70;99.90
15819;DHT22;8010;53.986;12.106;2023-04-12T13:08:14;13.70;99.90
15819;DHT22;8010;53.986;12.106;2023-04-12T13:10:40;13.70;99.90
15819;DHT22;8010;53.986;12.106;2023-04-12T13:13:06;13.80;99.90
15819;DHT22;8010;53.986;12.106;2023-04-12T13:15:31;13.90;99.90
15819;DHT22;8010;53.986;12.106;2023-04-12T13:17:57;14.00;99.90
15819;DHT22;8010;53.986;12.106;2023-04-12T13:20:22;14.10;99.90
15819;DHT22;8010;53.986;12.106;2023-04-12T13:22:49;14.20;99.90
15819;DHT22;8010;53.986;12.106;2023-04-12T13:25:16;14.30;99.90
15819;DHT22;8010;53.986;12.106;2023-04-12T13:27:44;14.40;99.90
15819;DHT22;8010;53.986;12.106;2023-04-12T13:30:10;14.40;99.90
15819;DHT22;8010;53.986;12.106;2023-04-12T13:32:36;14.40;99.90
15819;DHT22;8010;53.986;12.106;2023-04-12T13:35:02;14.30;99.90
15819;DHT22;8010;53.986;12.106;2023-04-12T13:37:28;14.20;99.90
15819;DHT22;8010;53.986;12.106;2023-04-12T13:39:54;14.10;99.90
15819;DHT22;8010;53.986;12.106;2023-04-12T13:42:20;14.10;99.90
15819;DHT22;8010;53.986;12.106;2023-04-12T13:44:47;14.00;99.90
15819;DHT22;8010;53.986;12.106;2023-04-12T13:47:13;13.90;99.90
15819;DHT22;8010;53.986;12.106;2023-04-12T13:49:39;13.80;99.90
15819;DHT22;8010;53.986;12.106;2023-04-12T13:52:05;13.60;99.90
15819;DHT22;8010;53.986;12.106;2023-04-12T13:54:31;13.50;99.90
15819;DHT22;8010;53.986;12.106;2023-04-12T13:56:56;13.50;99.90
15819;DHT22;8010;53.986;12.106;2023-04-12T13:59:24;13.40;99.90
15819;DHT22;8010;53.986;12.106;2023-04-12T14:01:49;13.40;99.90
15819;DHT22;8010;53.986;12.106;2023-04-12T14:04:15;13.30;99.90
15819;DHT22;8010;53.986;12.106;2023-04-12T14:06:41;13.30;99.90
15819;DHT22;8010;53.986;12.106;2023-04-12T14:09:07;13.30;99.90
15819;DHT22;8010;53.986;12.106;2023-04-12T14:11:46;13.30;99.90
15819;DHT22;8010;53.986;12.106;2023-04-12T14:14:12;13.20;99.90
15819;DHT22;8010;53.986;12.106;2023-04-12T14:16:38;13.10;99.90
15819;DHT22;8010;53.986;12.106;2023-04-12T14:19:03;13.10;99.90
15819;DHT22;8010;53.986;12.106;2023-04-12T14:21:29;13.10;99.90
15819;DHT22;8010;53.986;12.106;2023-04-12T14:23:55;13.00;99.90
15819;DHT22;8010;53.986;12.106;2023-04-12T14:26:21;13.00;99.90
15819;DHT22;8010;53.986;12.106;2023-04-12T14:28:50;12.90;99.90
15819;DHT22;8010;53.986;12.106;2023-04-12T14:31:16;12.60;99.90
15819;DHT22;8010;53.986;12.106;2023-04-12T14:33:42;12.50;99.90
15819;DHT22;8010;53.986;12.106;2023-04-12T14:36:08;12.40;99.90
15819;DHT22;8010;53.986;12.106;2023-04-12T14:38:34;12.30;99.90
15819;DHT22;8010;53.986;12.106;2023-04-12T14:41:00;12.30;99.90
15819;DHT22;8010;53.986;12.106;2023-04-12T14:43:26;12.30;99.90
15819;DHT22;8010;53.986;12.106;2023-04-12T14:45:52;12.30;99.90
15819;DHT22;8010;53.986;12.106;2023-04-12T14:48:19;12.30;99.90
15819;DHT22;8010;53.986;12.106;2023-04-12T14:50:45;12.30;99.90
15819;DHT22;8010;53.986;12.106;2023-04-12T14:53:11;12.30;99.90
15819;DHT22;8010;53.986;12.106;2023-04-12T14:55:38;12.20;99.90
15819;DHT22;8010;53.986;12.106;2023-04-12T14:58:04;12.20;99.90
15819;DHT22;8010;53.986;12.106;2023-04-12T15:00:32;12.20;99.90
15819;DHT22;8010;53.986;12.106;2023-04-12T15:02:57;12.30;99.90
15819;DHT22;8010;53.986;12.106;2023-04-12T15:05:25;12.30;99.90
15819;DHT22;8010;53.986;12.106;2023-04-12T15:07:52;12.30;99.90
15819;DHT22;8010;53.986;12.106;2023-04-12T15:10:18;12.40;99.90
15819;DHT22;8010;53.986;12.106;2023-04-12T15:12:45;12.40;99.90
15819;DHT22;8010;53.986;12.106;2023-04-12T15:15:11;12.40;99.90
15819;DHT22;8010;53.986;12.106;2023-04-12T15:17:37;12.40;99.90
15819;DHT22;8010;53.986;12.106;2023-04-12T15:20:03;12.30;99.90
15819;DHT22;8010;53.986;12.106;2023-04-12T15:22:34;12.10;99.90
15819;DHT22;8010;53.986;12.106;2023-04-12T15:25:00;12.00;99.90
15819;DHT22;8010;53.986;12.106;2023-04-12T15:27:26;11.80;99.90
15819;DHT22;8010;53.986;12.106;2023-04-12T15:29:52;11.70;99.90
15819;DHT22;8010;53.986;12.106;2023-04-12T15:32:18;11.60;99.90
15819;DHT22;8010;53.986;12.106;2023-04-12T15:34:43;11.60;99.90
15819;DHT22;8010;53.986;12.106;2023-04-12T15:37:09;11.90;99.90
15819;DHT22;8010;53.986;12.106;2023-04-12T15:39:35;11.50;99.90
15819;DHT22;8010;53.986;12.106;2023-04-12T15:42:00;11.50;99.90
15819;DHT22;8010;53.986;12.106;2023-04-12T15:44:26;11.50;99.90
15819;DHT22;8010;53.986;12.106;2023-04-12T15:46:59;11.50;99.90
15819;DHT22;8010;53.986;12.106;2023-04-12T15:49:24;11.40;99.90
15819;DHT22;8010;53.986;12.106;2023-04-12T15:51:50;11.40;99.90
15819;DHT22;8010;53.986;12.106;2023-04-12T15:54:17;11.30;99.90
15819;DHT22;8010;53.986;12.106;2023-04-12T15:56:43;11.30;99.90